Time;durP1;ratioP1;P1;durP2;ratioP2;P2;SDS_P1;SDS_P2;PMS_P1;PMS_P2;Temp;Humidity;BMP_temperature;BMP_pressure;BME280_temperature;BME280_humidity;BME280_pressure;Samples;Min_cycle;Max_cycle;Signal;HPM_P1;HPM_P2
2021/01/02 00:01:20;;;;;;;34.92;22.08;;;1.80;99.90;;;;;;5015168;28;20185;-76
2021/01/02 00:03:48;;;;;;;34.22;20.75;;;1.80;99.90;;;;;;5014637;28;20289;-76
2021/01/02 00:06:31;;;;;;;33.30;21.67;;;1.90;99.90;;;;;;5014841;28;20662;-76
2021/01/02 00:09:08;;;;;;;31.92;21.15;;;1.90;99.90;;;;;;5015212;28;20210;-76
2021/01/02 00:11:58;;;;;;;33.95;21.90;;;1.80;99.90;;;;;;5015121;28;20200;-75
2021/01/02 00:14:51;;;;;;;36.85;21.35;;;1.90;99.90;;;;;;5014663;28;20201;-76
2021/01/02 00:17:36;;;;;;;36.40;22.00;;;2.00;99.90;;;;;;5015036;28;20585;-76
2021/01/02 00:20:41;;;;;;;33.00;21.35;;;1.90;99.90;;;;;;5015006;28;20239;-75
2021/01/02 00:23:36;;;;;;;31.50;20.90;;;1.90;99.90;;;;;;5014557;28;20536;-75
2021/01/02 00:26:15;;;;;;;37.20;22.25;;;2.00;99.90;;;;;;5014778;28;20257;-74
2021/01/02 00:28:46;;;;;;;40.58;23.70;;;2.10;99.90;;;;;;5014779;28;20252;-76
2021/01/02 00:31:33;;;;;;;38.05;21.58;;;2.00;99.90;;;;;;5013885;28;20174;-76
2021/01/02 00:34:32;;;;;;;35.75;22.48;;;2.00;99.90;;;;;;5014292;28;20249;-77
2021/01/02 00:37:24;;;;;;;29.67;20.48;;;2.00;99.90;;;;;;5014862;28;20227;-76
2021/01/02 00:40:09;;;;;;;33.70;20.63;;;1.90;99.90;;;;;;5014831;28;20209;-76
2021/01/02 00:42:37;;;;;;;32.28;19.92;;;1.90;99.90;;;;;;5018731;28;20178;-76
2021/01/02 00:45:05;;;;;;;38.15;23.08;;;1.90;99.90;;;;;;5014304;28;20199;-76
2021/01/02 00:47:36;;;;;;;33.38;21.52;;;1.90;99.90;;;;;;5015115;28;20201;-75
2021/01/02 00:50:04;;;;;;;32.80;20.50;;;2.00;99.90;;;;;;5014517;28;20354;-76
2021/01/02 00:52:45;;;;;;;29.95;20.25;;;2.10;99.90;;;;;;5012960;28;20185;-75
2021/01/02 00:55:29;;;;;;;32.80;20.10;;;2.10;99.90;;;;;;5014004;28;20203;-77
2021/01/02 00:58:10;;;;;;;33.28;19.70;;;2.00;99.90;;;;;;5014271;28;20174;-75
2021/01/02 01:00:38;;;;;;;35.00;21.63;;;2.00;99.90;;;;;;5014080;28;20189;-77
2021/01/02 01:03:06;;;;;;;30.45;19.67;;;2.20;99.90;;;;;;5013632;28;20214;-77
2021/01/02 01:05:37;;;;;;;32.50;19.88;;;2.20;99.90;;;;;;5014242;28;20189;-76
2021/01/02 01:08:04;;;;;;;34.90;21.90;;;2.10;99.90;;;;;;5014009;28;20222;-76
2021/01/02 01:10:32;;;;;;;32.97;21.17;;;2.10;99.90;;;;;;5014022;28;20199;-75
2021/01/02 01:13:05;;;;;;;35.97;22.67;;;2.00;99.90;;;;;;5013734;28;20670;-76
2021/01/02 01:15:31;;;;;;;35.75;20.60;;;2.00;99.90;;;;;;5014159;28;20173;-75
2021/01/02 01:18:11;;;;;;;36.47;22.20;;;2.00;99.90;;;;;;5014217;28;20178;-76
2021/01/02 01:20:53;;;;;;;29.92;20.10;;;2.00;99.90;;;;;;5014148;28;20681;-76
2021/01/02 01:23:48;;;;;;;40.10;20.08;;;2.00;99.90;;;;;;5013821;28;20200;-76
2021/01/02 01:26:26;;;;;;;32.92;21.60;;;2.00;99.90;;;;;;5014116;28;20190;-77
2021/01/02 01:28:56;;;;;;;27.80;19.45;;;2.00;99.90;;;;;;5013815;28;20291;-77
2021/01/02 01:31:22;;;;;;;41.83;23.55;;;2.00;99.90;;;;;;5014003;28;20172;-76
2021/01/02 01:33:50;;;;;;;36.08;20.40;;;1.90;99.90;;;;;;5013487;28;20293;-75
2021/01/02 01:36:20;;;;;;;33.33;19.08;;;1.90;99.90;;;;;;5013872;28;20169;-76
2021/01/02 01:38:56;;;;;;;36.65;21.65;;;1.90;99.90;;;;;;5013665;28;20176;-77
2021/01/02 01:41:36;;;;;;;33.25;19.80;;;1.80;99.90;;;;;;5013684;28;20282;-76
2021/01/02 01:44:05;;;;;;;31.88;20.05;;;1.70;99.90;;;;;;5013412;28;20195;-75
2021/01/02 01:46:49;;;;;;;36.33;19.25;;;1.60;99.90;;;;;;5013668;28;20177;-77
2021/01/02 01:49:30;;;;;;;38.90;20.63;;;1.60;99.90;;;;;;5013628;28;20238;-77
2021/01/02 01:52:04;;;;;;;33.67;20.13;;;1.50;99.90;;;;;;5013535;28;20197;-75
2021/01/02 01:54:44;;;;;;;34.22;20.98;;;1.40;99.90;;;;;;5013177;28;20204;-75
2021/01/02 01:57:15;;;;;;;31.55;21.02;;;1.30;99.90;;;;;;5013399;28;20179;-77
2021/01/02 01:59:58;;;;;;;37.67;20.73;;;1.30;99.90;;;;;;5013654;28;20171;-76
2021/01/02 02:02:45;;;;;;;30.92;17.88;;;1.10;99.90;;;;;;5013392;28;20179;-76
2021/01/02 02:05:46;;;;;;;35.17;21.52;;;1.20;99.90;;;;;;5013015;28;20281;-78
2021/01/02 02:08:15;;;;;;;35.58;21.65;;;1.20;99.90;;;;;;5013414;28;20530;-76
2021/01/02 02:11:01;;;;;;;38.08;21.73;;;1.20;99.90;;;;;;5013800;28;20183;-76
2021/01/02 02:13:36;;;;;;;37.58;21.70;;;1.20;99.90;;;;;;5013228;28;20195;-75
2021/01/02 02:16:10;;;;;;;33.15;21.83;;;1.30;99.90;;;;;;5013570;28;20179;-76
2021/01/02 02:18:42;;;;;;;47.38;24.63;;;1.40;99.90;;;;;;5014714;28;20207;-75
2021/01/02 02:21:11;;;;;;;40.80;22.92;;;1.60;99.90;;;;;;5017306;28;20233;-75
2021/01/02 02:23:46;;;;;;;38.67;22.80;;;1.60;99.90;;;;;;5016942;28;20688;-76
2021/01/02 02:26:33;;;;;;;37.55;23.35;;;1.60;99.90;;;;;;5017259;28;20218;-75
2021/01/02 02:29:04;;;;;;;41.60;25.70;;;1.60;99.90;;;;;;5017038;28;20198;-77
2021/01/02 02:31:32;;;;;;;37.00;22.95;;;1.70;99.90;;;;;;5016997;28;20214;-76
2021/01/02 02:33:59;;;;;;;47.80;23.88;;;1.70;99.90;;;;;;5016555;28;20211;-75
2021/01/02 02:36:30;;;;;;;36.42;23.65;;;1.90;99.90;;;;;;5017051;28;20518;-76
2021/01/02 02:39:10;;;;;;;36.95;24.63;;;1.80;99.90;;;;;;5017231;28;20176;-77
2021/01/02 02:41:59;;;;;;;40.22;23.58;;;2.00;99.90;;;;;;5016917;28;20176;-75
2021/01/02 02:44:32;;;;;;;39.20;22.48;;;2.00;99.90;;;;;;5016432;28;20224;-75
2021/01/02 02:47:01;;;;;;;37.05;22.83;;;2.10;99.90;;;;;;5016910;28;20206;-77
2021/01/02 02:49:32;;;;;;;36.05;24.60;;;2.10;99.90;;;;;;5016681;28;20174;-76
2021/01/02 02:52:26;;;;;;;34.03;20.88;;;2.10;99.90;;;;;;5016815;28;20534;-78
2021/01/02 02:54:52;;;;;;;32.90;20.40;;;2.10;99.90;;;;;;5016211;28;20194;-75
2021/01/02 02:57:20;;;;;;;42.77;24.70;;;2.00;99.90;;;;;;5016482;28;20176;-76
2021/01/02 02:59:45;;;;;;;36.40;24.65;;;2.20;99.90;;;;;;5016571;28;20423;-77
2021/01/02 03:02:14;;;;;;;36.60;22.63;;;2.30;99.90;;;;;;5016473;28;20181;-76
2021/01/02 03:04:40;;;;;;;35.58;20.25;;;2.20;99.90;;;;;;5016048;28;20254;-74
2021/01/02 03:07:06;;;;;;;40.92;22.52;;;2.30;99.90;;;;;;5015130;28;20177;-76
2021/01/02 03:09:32;;;;;;;36.00;22.05;;;2.40;99.90;;;;;;5016226;28;20169;-77
2021/01/02 03:11:59;;;;;;;40.53;23.05;;;2.40;99.90;;;;;;5016436;28;20528;-77
2021/01/02 03:14:24;;;;;;;34.65;22.02;;;2.30;99.90;;;;;;5015972;28;20236;-76
2021/01/02 03:16:58;;;;;;;31.13;20.00;;;2.30;99.90;;;;;;5016382;28;20209;-73
2021/01/02 03:19:29;;;;;;;33.00;20.65;;;2.30;99.90;;;;;;5016130;28;20471;-77
2021/01/02 03:21:55;;;;;;;37.50;20.98;;;2.20;99.90;;;;;;5016125;28;20177;-76
2021/01/02 03:24:21;;;;;;;30.10;20.30;;;2.20;99.90;;;;;;5015708;28;20254;-75
2021/01/02 03:26:46;;;;;;;32.00;18.48;;;2.20;99.90;;;;;;5016277;28;20412;-76
2021/01/02 03:29:12;;;;;;;33.63;20.13;;;2.20;99.90;;;;;;5014692;28;20558;-76
2021/01/02 03:31:38;;;;;;;30.00;19.73;;;2.10;99.90;;;;;;5015908;28;20633;-76
2021/01/02 03:34:04;;;;;;;33.45;20.00;;;2.10;99.90;;;;;;5015482;28;20623;-76
2021/01/02 03:36:29;;;;;;;37.47;23.27;;;2.10;99.90;;;;;;5016038;28;20259;-76
2021/01/02 03:38:58;;;;;;;38.23;22.97;;;2.00;99.90;;;;;;5015957;28;20260;-75
2021/01/02 03:41:25;;;;;;;36.17;22.90;;;2.00;99.90;;;;;;5015668;28;20187;-76
2021/01/02 03:43:51;;;;;;;35.40;22.45;;;2.00;99.90;;;;;;5015130;28;20261;-74
2021/01/02 03:46:17;;;;;;;34.50;22.27;;;2.00;99.90;;;;;;5015601;28;20633;-74
2021/01/02 03:48:43;;;;;;;40.50;21.58;;;2.10;99.90;;;;;;5014242;28;20217;-77
2021/01/02 03:51:09;;;;;;;41.80;22.97;;;2.20;99.90;;;;;;5015493;28;20200;-77
2021/01/02 03:53:34;;;;;;;38.57;21.20;;;2.30;99.90;;;;;;5015093;28;20201;-75
2021/01/02 03:56:00;;;;;;;40.10;23.17;;;2.30;99.90;;;;;;5015377;28;20495;-76
2021/01/02 03:58:26;;;;;;;41.70;22.83;;;2.10;99.90;;;;;;5015351;28;20228;-75
2021/01/02 04:00:51;;;;;;;34.67;21.43;;;2.10;99.90;;;;;;5015395;28;20203;-74
2021/01/02 04:03:17;;;;;;;38.70;21.60;;;2.20;99.90;;;;;;5014931;28;20290;-75
2021/01/02 04:05:46;;;;;;;34.83;22.43;;;2.10;99.90;;;;;;5015120;28;20189;-75
2021/01/02 04:08:12;;;;;;;35.22;22.30;;;1.90;99.90;;;;;;5015037;28;20295;-76
2021/01/02 04:10:38;;;;;;;34.22;21.05;;;2.00;99.90;;;;;;5015243;28;20261;-76
2021/01/02 04:13:04;;;;;;;33.15;19.85;;;2.00;99.90;;;;;;5014709;28;20189;-77
2021/01/02 04:15:30;;;;;;;33.70;20.48;;;2.10;99.90;;;;;;5014127;28;20270;-76
2021/01/02 04:17:56;;;;;;;42.13;22.70;;;2.00;99.90;;;;;;5015236;28;20181;-76
2021/01/02 04:20:23;;;;;;;33.03;19.20;;;2.00;99.90;;;;;;5014924;28;20175;-76
2021/01/02 04:22:49;;;;;;;34.60;21.17;;;2.00;99.90;;;;;;5014769;28;20195;-75
2021/01/02 04:25:14;;;;;;;32.50;21.00;;;1.90;99.90;;;;;;5015075;28;20171;-75
2021/01/02 04:27:40;;;;;;;28.53;19.33;;;2.00;99.90;;;;;;5014859;28;20217;-74
2021/01/02 04:30:06;;;;;;;37.97;20.80;;;2.10;99.90;;;;;;5013555;28;20181;-76
2021/01/02 04:32:32;;;;;;;32.15;20.45;;;2.10;99.90;;;;;;5014861;28;20310;-75
2021/01/02 04:34:57;;;;;;;33.90;20.40;;;2.10;99.90;;;;;;5014338;28;20213;-74
2021/01/02 04:37:29;;;;;;;36.27;22.00;;;2.00;99.90;;;;;;5014530;28;20240;-74
2021/01/02 04:39:56;;;;;;;30.75;19.90;;;2.10;99.90;;;;;;5013368;28;20276;-74
2021/01/02 04:42:24;;;;;;;34.75;21.52;;;2.10;99.90;;;;;;5013891;28;20208;-75
2021/01/02 04:44:52;;;;;;;29.55;21.08;;;2.10;99.90;;;;;;5014291;28;20196;-76
2021/01/02 04:47:21;;;;;;;32.33;18.70;;;2.10;99.90;;;;;;5014412;28;20662;-77
2021/01/02 04:49:47;;;;;;;34.85;20.58;;;2.10;99.90;;;;;;5014440;28;20192;-75
2021/01/02 04:52:16;;;;;;;31.17;20.00;;;2.20;99.90;;;;;;5012887;28;20701;-76
2021/01/02 04:54:48;;;;;;;33.35;20.48;;;2.20;99.90;;;;;;5014118;28;20198;-77
2021/01/02 04:57:14;;;;;;;37.35;22.48;;;2.40;99.90;;;;;;5014487;28;20531;-75
2021/01/02 04:59:40;;;;;;;32.70;18.60;;;2.30;99.90;;;;;;5014236;28;20171;-75
2021/01/02 05:02:12;;;;;;;34.42;20.92;;;2.20;99.90;;;;;;5014254;28;20450;-77
2021/01/02 05:04:38;;;;;;;32.38;20.40;;;2.30;99.90;;;;;;5013776;28;20232;-75
2021/01/02 05:07:03;;;;;;;32.87;20.70;;;2.30;99.90;;;;;;5014156;28;20197;-75
2021/01/02 05:09:29;;;;;;;31.30;19.13;;;2.40;99.90;;;;;;5014131;28;20693;-76
2021/01/02 05:11:55;;;;;;;31.47;19.77;;;2.30;99.90;;;;;;5014126;28;20174;-75
2021/01/02 05:14:20;;;;;;;31.07;20.30;;;2.20;99.90;;;;;;5013477;28;20440;-75
2021/01/02 05:16:46;;;;;;;32.23;19.60;;;2.20;99.90;;;;;;5013981;28;20170;-75
2021/01/02 05:19:14;;;;;;;27.97;19.10;;;2.10;99.90;;;;;;5013990;28;20171;-77
2021/01/02 05:21:47;;;;;;;33.80;20.20;;;2.10;99.90;;;;;;5014032;28;20489;-75
2021/01/02 05:24:20;;;;;;;29.58;19.60;;;2.00;99.90;;;;;;5013441;28;20204;-76
2021/01/02 05:26:55;;;;;;;32.47;19.65;;;2.10;99.90;;;;;;5013700;28;20171;-76
2021/01/02 05:29:29;;;;;;;30.67;19.88;;;2.20;99.90;;;;;;5013799;28;20181;-76
2021/01/02 05:31:56;;;;;;;29.90;18.50;;;2.20;99.90;;;;;;5013817;28;20175;-75
2021/01/02 05:34:27;;;;;;;31.50;18.70;;;2.30;99.90;;;;;;5011908;28;20349;-75
2021/01/02 05:37:00;;;;;;;26.77;18.42;;;2.30;99.90;;;;;;5013859;28;20627;-77
2021/01/02 05:39:40;;;;;;;26.98;18.30;;;2.30;99.90;;;;;;5013596;28;20180;-76
2021/01/02 05:42:07;;;;;;;30.40;17.60;;;2.20;99.90;;;;;;5012692;28;20169;-74
2021/01/02 05:44:35;;;;;;;25.30;16.58;;;2.20;99.90;;;;;;5013350;28;20654;-75
2021/01/02 05:47:02;;;;;;;27.20;16.60;;;2.20;99.90;;;;;;5013419;28;20189;-77
2021/01/02 05:49:39;;;;;;;26.52;17.05;;;2.10;99.90;;;;;;5013655;28;20199;-76
2021/01/02 05:52:12;;;;;;;27.02;17.17;;;2.20;99.90;;;;;;5013540;28;20192;-77
2021/01/02 05:54:50;;;;;;;24.80;16.58;;;2.10;99.90;;;;;;5013064;28;20248;-77
2021/01/02 05:57:29;;;;;;;26.23;17.33;;;2.10;99.90;;;;;;5013683;28;20227;-77
2021/01/02 05:59:58;;;;;;;29.50;17.25;;;2.10;99.90;;;;;;5013414;28;20209;-75
2021/01/02 06:02:26;;;;;;;25.63;17.77;;;2.10;99.90;;;;;;5013378;28;20642;-74
2021/01/02 06:05:06;;;;;;;24.20;16.27;;;2.00;99.90;;;;;;5012738;28;20228;-76
2021/01/02 06:07:34;;;;;;;25.92;19.10;;;2.10;99.90;;;;;;5013408;28;20202;-77
2021/01/02 06:10:00;;;;;;;24.75;16.83;;;2.10;99.90;;;;;;5012051;28;20179;-75
2021/01/02 06:12:26;;;;;;;27.13;16.88;;;2.00;99.90;;;;;;5012191;28;20645;-75
2021/01/02 06:14:53;;;;;;;27.37;17.70;;;2.00;99.90;;;;;;5012732;28;20196;-74
2021/01/02 06:17:26;;;;;;;28.38;15.55;;;2.10;99.90;;;;;;5013019;28;20185;-75
2021/01/02 06:19:52;;;;;;;24.77;15.95;;;2.10;99.90;;;;;;5013561;28;20621;-75
2021/01/02 06:22:19;;;;;;;25.77;15.63;;;2.20;99.90;;;;;;5013193;28;20248;-76
2021/01/02 06:24:45;;;;;;;26.40;17.30;;;2.10;99.90;;;;;;5013060;28;20243;-76
2021/01/02 06:27:11;;;;;;;26.52;16.25;;;2.20;99.90;;;;;;5013271;28;20593;-75
2021/01/02 06:29:36;;;;;;;24.77;16.67;;;2.20;99.90;;;;;;5013272;28;20178;-75
2021/01/02 06:32:06;;;;;;;26.60;17.50;;;2.30;99.90;;;;;;5013177;28;20689;-74
2021/01/02 06:34:32;;;;;;;22.92;15.00;;;2.40;99.90;;;;;;5011536;28;20682;-76
2021/01/02 06:36:57;;;;;;;31.43;16.70;;;2.30;99.90;;;;;;5013112;28;20174;-77
2021/01/02 06:39:27;;;;;;;23.17;15.67;;;2.20;99.90;;;;;;5013020;28;20182;-75
2021/01/02 06:41:53;;;;;;;23.55;16.25;;;2.30;99.90;;;;;;5013071;28;20209;-75
2021/01/02 06:44:45;;;;;;;25.67;16.33;;;2.30;99.90;;;;;;5012637;28;20207;-75
2021/01/02 06:47:15;;;;;;;24.65;14.18;;;2.40;99.90;;;;;;5013048;28;20223;-75
2021/01/02 06:49:41;;;;;;;28.27;17.25;;;2.40;99.90;;;;;;5013032;28;20199;-76
2021/01/02 06:52:07;;;;;;;27.37;16.40;;;2.30;99.90;;;;;;5012886;28;20218;-76
2021/01/02 06:54:32;;;;;;;26.97;18.33;;;2.30;99.90;;;;;;5012460;28;20428;-76
2021/01/02 06:57:03;;;;;;;23.60;15.07;;;2.30;99.90;;;;;;5012929;28;20173;-75
2021/01/02 06:59:29;;;;;;;27.17;16.63;;;2.30;99.90;;;;;;5012826;28;20177;-75
2021/01/02 07:01:56;;;;;;;27.02;16.05;;;2.30;99.90;;;;;;5012863;28;20177;-74
2021/01/02 07:04:38;;;;;;;23.40;16.40;;;2.40;99.90;;;;;;5013298;28;20716;-76
2021/01/02 07:07:07;;;;;;;28.77;16.23;;;2.40;99.90;;;;;;5016320;28;20181;-74
2021/01/02 07:09:33;;;;;;;24.17;15.60;;;2.40;99.90;;;;;;5016343;28;20234;-75
2021/01/02 07:12:11;;;;;;;20.52;14.93;;;2.40;99.90;;;;;;5016494;28;20549;-76
2021/01/02 07:14:37;;;;;;;24.13;16.70;;;2.50;99.90;;;;;;5015898;28;20227;-76
2021/01/02 07:17:12;;;;;;;24.58;15.82;;;2.60;99.90;;;;;;5016185;28;20189;-75
2021/01/02 07:19:43;;;;;;;23.65;15.88;;;2.60;99.90;;;;;;5016351;28;20169;-75
2021/01/02 07:22:29;;;;;;;25.75;15.40;;;2.50;99.90;;;;;;5016334;28;20164;-75
2021/01/02 07:25:08;;;;;;;24.15;16.35;;;2.40;99.90;;;;;;5015589;28;20205;-76
2021/01/02 07:27:39;;;;;;;25.65;17.35;;;2.30;99.90;;;;;;5015915;28;20193;-74
2021/01/02 07:30:10;;;;;;;25.05;15.30;;;2.20;99.90;;;;;;5016114;28;20202;-77
2021/01/02 07:32:41;;;;;;;22.85;14.52;;;2.30;99.90;;;;;;5016018;28;20236;-76
2021/01/02 07:35:09;;;;;;;27.55;16.42;;;2.30;99.90;;;;;;5015852;28;20249;-74
2021/01/02 07:37:37;;;;;;;23.48;15.18;;;2.30;99.90;;;;;;5016003;28;20170;-76
2021/01/02 07:40:07;;;;;;;29.63;15.38;;;2.40;99.90;;;;;;5015970;28;20184;-74
2021/01/02 07:42:38;;;;;;;24.25;15.00;;;2.40;99.90;;;;;;5015790;28;20181;-75
2021/01/02 07:45:15;;;;;;;23.27;15.20;;;2.40;99.90;;;;;;5015478;28;20201;-75
2021/01/02 07:47:58;;;;;;;28.60;16.42;;;2.40;99.90;;;;;;5015446;28;20276;-74
2021/01/02 07:50:25;;;;;;;26.45;14.93;;;2.30;99.90;;;;;;5015734;28;20185;-76
2021/01/02 07:52:56;;;;;;;23.05;15.68;;;2.30;99.90;;;;;;5015189;28;20171;-75
2021/01/02 07:55:32;;;;;;;23.98;14.45;;;2.20;99.90;;;;;;5015475;28;20583;-76
2021/01/02 07:57:59;;;;;;;22.95;15.77;;;2.30;99.90;;;;;;5015472;28;20220;-75
2021/01/02 08:00:25;;;;;;;19.58;13.90;;;2.30;99.90;;;;;;5015399;28;20246;-76
2021/01/02 08:02:52;;;;;;;25.50;15.10;;;2.30;99.90;;;;;;5015155;28;20315;-77
2021/01/02 08:05:20;;;;;;;20.58;14.13;;;2.30;99.90;;;;;;5015335;28;20178;-76
2021/01/02 08:07:53;;;;;;;23.35;13.73;;;2.30;99.90;;;;;;5015047;28;20201;-76
2021/01/02 08:10:18;;;;;;;20.15;13.20;;;2.40;99.90;;;;;;5015221;28;20182;-76
2021/01/02 08:12:49;;;;;;;23.30;14.17;;;2.40;99.90;;;;;;5015112;28;20171;-76
2021/01/02 08:15:24;;;;;;;23.25;15.07;;;2.40;99.90;;;;;;5013450;28;20513;-76
2021/01/02 08:17:50;;;;;;;25.17;15.70;;;2.40;99.90;;;;;;4997010;28;20189;-76
2021/01/02 08:20:16;;;;;;;23.23;14.43;;;2.40;99.90;;;;;;5015047;28;20180;-77
2021/01/02 08:22:42;;;;;;;28.40;15.37;;;2.50;99.90;;;;;;5015115;28;20569;-77
2021/01/02 08:25:15;;;;;;;23.70;14.53;;;2.50;99.90;;;;;;5013720;28;20204;-76
2021/01/02 08:27:41;;;;;;;26.52;15.25;;;2.60;99.90;;;;;;5015234;28;20198;-76
2021/01/02 08:30:09;;;;;;;24.45;13.80;;;2.50;99.90;;;;;;5014779;28;20591;-76
2021/01/02 08:32:37;;;;;;;27.65;14.88;;;2.60;99.90;;;;;;5014976;28;20183;-76
2021/01/02 08:35:14;;;;;;;20.88;14.40;;;2.70;99.90;;;;;;5013124;28;20218;-76
2021/01/02 08:37:39;;;;;;;23.70;14.23;;;2.70;99.90;;;;;;5015018;28;20186;-77
2021/01/02 08:40:08;;;;;;;25.90;15.17;;;2.80;99.90;;;;;;5014501;28;20190;-75
2021/01/02 08:42:36;;;;;;;22.05;15.15;;;2.80;99.90;;;;;;5014655;28;20649;-76
2021/01/02 08:45:04;;;;;;;19.92;13.75;;;2.80;99.90;;;;;;5014157;28;20201;-76
2021/01/02 08:47:29;;;;;;;24.45;14.40;;;3.10;99.90;;;;;;5014463;28;20205;-77
2021/01/02 08:49:55;;;;;;;20.50;14.13;;;3.00;99.90;;;;;;5014713;28;20173;-76
2021/01/02 08:52:25;;;;;;;20.57;14.73;;;3.00;99.90;;;;;;5014478;28;20307;-76
2021/01/02 08:55:11;;;;;;;23.58;14.82;;;2.90;99.90;;;;;;5014188;28;20194;-75
2021/01/02 08:57:50;;;;;;;22.90;14.80;;;2.80;99.90;;;;;;5013995;28;20203;-75
2021/01/02 09:00:29;;;;;;;20.60;13.25;;;2.90;99.90;;;;;;5014299;28;20185;-76
2021/01/02 09:02:54;;;;;;;20.90;13.40;;;2.90;99.90;;;;;;5014075;28;20193;-75
2021/01/02 09:05:30;;;;;;;24.33;13.80;;;2.90;99.90;;;;;;5014108;28;20628;-76
2021/01/02 09:08:08;;;;;;;21.42;13.90;;;2.90;99.90;;;;;;5014146;28;20202;-76
2021/01/02 09:10:44;;;;;;;24.10;14.15;;;3.00;99.90;;;;;;5014334;28;20182;-76
2021/01/02 09:13:22;;;;;;;22.00;14.48;;;3.10;99.90;;;;;;5013709;28;20196;-77
2021/01/02 09:16:05;;;;;;;21.95;14.50;;;3.30;99.90;;;;;;5013973;28;20202;-75
2021/01/02 09:18:31;;;;;;;22.50;14.55;;;3.30;99.90;;;;;;5013929;28;20171;-76
2021/01/02 09:21:06;;;;;;;21.50;15.77;;;3.20;99.90;;;;;;5013956;28;20175;-76
2021/01/02 09:23:37;;;;;;;19.13;13.65;;;3.00;99.90;;;;;;5012349;28;20420;-76
2021/01/02 09:26:04;;;;;;;24.95;14.65;;;3.00;99.90;;;;;;5014124;28;20174;-76
2021/01/02 09:28:41;;;;;;;24.15;14.73;;;3.10;99.90;;;;;;5013471;28;20194;-75
2021/01/02 09:31:07;;;;;;;21.25;13.98;;;3.10;99.90;;;;;;5013795;28;20623;-76
2021/01/02 09:33:32;;;;;;;20.90;13.47;;;3.10;99.90;;;;;;5013289;28;20242;-77
2021/01/02 09:35:58;;;;;;;23.10;14.17;;;3.10;99.90;;;;;;5013967;28;20190;-76
2021/01/02 09:38:23;;;;;;;23.23;15.03;;;3.20;99.90;;;;;;5013703;28;20189;-74
2021/01/02 09:40:49;;;;;;;22.30;15.53;;;3.30;99.90;;;;;;5013702;28;20590;-76
2021/01/02 09:43:15;;;;;;;20.87;14.10;;;3.30;99.90;;;;;;5013449;28;20209;-75
2021/01/02 09:45:42;;;;;;;19.17;13.43;;;3.40;99.90;;;;;;5013765;28;20291;-74
2021/01/02 09:48:09;;;;;;;26.20;14.60;;;3.40;99.90;;;;;;5013510;28;20218;-76
2021/01/02 09:50:35;;;;;;;23.83;16.58;;;3.50;99.90;;;;;;5013603;28;20690;-76
2021/01/02 09:53:02;;;;;;;21.37;13.37;;;3.70;99.90;;;;;;5013337;28;20175;-75
2021/01/02 09:55:27;;;;;;;24.88;14.85;;;3.70;99.90;;;;;;5013703;28;20181;-76
2021/01/02 09:57:53;;;;;;;18.73;13.40;;;3.70;99.90;;;;;;5013604;28;20170;-77
2021/01/02 10:00:20;;;;;;;17.90;12.73;;;3.80;99.90;;;;;;5013392;28;20636;-76
2021/01/02 10:02:46;;;;;;;17.52;12.48;;;3.80;99.90;;;;;;5013253;28;20421;-77
2021/01/02 10:05:17;;;;;;;18.60;12.95;;;3.80;99.90;;;;;;5013497;28;20616;-75
2021/01/02 10:07:42;;;;;;;18.73;13.25;;;3.90;99.90;;;;;;5013306;28;20200;-73
2021/01/02 10:10:10;;;;;;;16.97;11.33;;;4.10;99.90;;;;;;5013420;28;20701;-74
2021/01/02 10:12:35;;;;;;;17.08;11.95;;;4.20;99.90;;;;;;5013206;28;20417;-74
2021/01/02 10:15:01;;;;;;;15.80;11.27;;;4.10;99.90;;;;;;5012902;28;20264;-74
2021/01/02 10:17:29;;;;;;;18.10;12.53;;;4.40;99.90;;;;;;5013203;28;20181;-74
2021/01/02 10:19:56;;;;;;;15.57;10.65;;;4.30;99.90;;;;;;5013257;28;20333;-74
2021/01/02 10:22:22;;;;;;;13.85;9.95;;;4.60;99.90;;;;;;5013321;28;20191;-75
2021/01/02 10:24:49;;;;;;;16.67;11.30;;;5.00;99.90;;;;;;5012708;28;20207;-74
2021/01/02 10:27:15;;;;;;;21.40;15.30;;;5.30;99.90;;;;;;5013113;28;20182;-74
2021/01/02 10:29:46;;;;;;;15.68;10.82;;;5.50;99.90;;;;;;5013200;28;20167;-74
2021/01/02 10:32:13;;;;;;;17.10;11.50;;;5.30;99.90;;;;;;5013207;28;20772;-74
2021/01/02 10:34:45;;;;;;;13.27;9.40;;;5.30;99.90;;;;;;5012661;28;20212;-74
2021/01/02 10:37:11;;;;;;;12.60;9.43;;;5.10;99.90;;;;;;5013348;28;20179;-74
2021/01/02 10:39:37;;;;;;;15.38;9.90;;;4.90;99.90;;;;;;5014507;28;20181;-73
2021/01/02 10:42:03;;;;;;;12.55;9.23;;;4.50;99.90;;;;;;5017112;28;20171;-74
2021/01/02 10:44:29;;;;;;;15.97;10.53;;;4.60;99.90;;;;;;5016600;28;20282;-74
2021/01/02 10:46:54;;;;;;;15.80;10.20;;;4.60;99.90;;;;;;5016740;28;20528;-74
2021/01/02 10:49:22;;;;;;;14.27;9.20;;;4.50;99.90;;;;;;5010437;28;20210;-74
2021/01/02 10:51:48;;;;;;;13.35;10.75;;;4.50;99.90;;;;;;5004817;28;20172;-75
2021/01/02 10:54:16;;;;;;;14.85;9.90;;;4.60;99.90;;;;;;5013220;28;20555;-73
2021/01/02 10:57:00;;;;;;;14.57;10.77;;;4.50;99.90;;;;;;5016379;28;20512;-75
2021/01/02 10:59:25;;;;;;;13.68;9.88;;;4.80;99.90;;;;;;5016670;28;20261;-74
2021/01/02 11:01:53;;;;;;;14.97;10.73;;;4.90;99.90;;;;;;5016665;28;20213;-74
2021/01/02 11:04:21;;;;;;;19.00;10.35;;;5.10;99.90;;;;;;5016164;28;20206;-74
2021/01/02 11:06:50;;;;;;;15.15;10.95;;;5.00;99.90;;;;;;5016455;28;20181;-74
2021/01/02 11:09:16;;;;;;;17.00;11.38;;;5.00;99.90;;;;;;5016079;28;20305;-74
2021/01/02 11:11:42;;;;;;;15.35;11.25;;;4.80;99.90;;;;;;5016334;28;20241;-74
2021/01/02 11:14:10;;;;;;;15.03;10.03;;;5.10;99.90;;;;;;5015876;28;20659;-74
2021/01/02 11:16:38;;;;;;;14.75;10.38;;;5.20;99.90;;;;;;5016258;28;20233;-75
2021/01/02 11:19:12;;;;;;;17.63;10.40;;;5.30;99.90;;;;;;5016063;28;20172;-74
2021/01/02 11:21:39;;;;;;;12.55;8.25;;;5.50;99.90;;;;;;5016185;28;20163;-74
2021/01/02 11:24:06;;;;;;;14.55;9.60;;;5.40;99.90;;;;;;5016112;28;20200;-75
2021/01/02 11:26:31;;;;;;;10.77;9.10;;;5.30;99.90;;;;;;5016282;28;20179;-74
2021/01/02 11:28:57;;;;;;;13.23;10.10;;;5.40;99.90;;;;;;5015805;28;20211;-73
2021/01/02 11:31:36;;;;;;;14.67;9.20;;;5.30;99.90;;;;;;5015949;28;20217;-74
2021/01/02 11:34:02;;;;;;;16.98;8.15;;;5.20;99.90;;;;;;5014286;28;20709;-74
2021/01/02 11:36:28;;;;;;;12.55;8.50;;;5.10;99.90;;;;;;5015989;28;20190;-74
2021/01/02 11:38:54;;;;;;;13.17;8.67;;;4.90;99.90;;;;;;5015887;28;20182;-74
2021/01/02 11:41:33;;;;;;;12.20;9.45;;;4.70;99.90;;;;;;5015544;28;20175;-74
2021/01/02 11:43:59;;;;;;;14.27;8.40;;;4.80;99.90;;;;;;5015323;28;20251;-74
2021/01/02 11:46:40;;;;;;;16.40;9.97;;;5.10;99.90;;;;;;5015986;28;20590;-74
2021/01/02 11:49:07;;;;;;;15.50;10.10;;;5.10;99.90;;;;;;5015718;28;20468;-75
2021/01/02 11:51:33;;;;;;;13.68;10.57;;;5.20;99.90;;;;;;5015425;28;20183;-74
2021/01/02 11:53:59;;;;;;;15.30;10.50;;;5.00;99.90;;;;;;5015178;28;20191;-75
2021/01/02 11:56:26;;;;;;;12.57;9.63;;;5.10;99.90;;;;;;5015656;28;20402;-73
2021/01/02 11:58:53;;;;;;;15.68;9.70;;;5.10;99.90;;;;;;5015477;28;20237;-74
2021/01/02 12:01:20;;;;;;;21.27;13.27;;;4.80;99.90;;;;;;5015470;28;20208;-75
2021/01/02 12:03:46;;;;;;;23.00;11.93;;;4.90;99.90;;;;;;5014905;28;20206;-75
2021/01/02 12:06:12;;;;;;;17.75;10.50;;;4.70;99.90;;;;;;5015356;28;20183;-74
2021/01/02 12:08:38;;;;;;;18.00;10.85;;;4.70;99.90;;;;;;5015331;28;20234;-74
2021/01/02 12:11:06;;;;;;;22.83;10.87;;;4.80;99.90;;;;;;5015111;28;20203;-74
2021/01/02 12:13:40;;;;;;;19.70;12.20;;;4.60;99.90;;;;;;5014450;28;20192;-75
2021/01/02 12:16:07;;;;;;;21.70;12.32;;;4.70;99.90;;;;;;5015362;28;20176;-74
2021/01/02 12:18:33;;;;;;;24.45;12.75;;;4.70;99.90;;;;;;5015389;28;20261;-75
2021/01/02 12:20:59;;;;;;;22.17;12.80;;;4.70;99.90;;;;;;5013761;28;20547;-75
2021/01/02 12:23:25;;;;;;;20.90;11.83;;;4.70;99.90;;;;;;5014393;28;20197;-75
2021/01/02 12:25:52;;;;;;;22.77;12.98;;;4.60;99.90;;;;;;5014492;28;20260;-74
2021/01/02 12:28:17;;;;;;;26.13;15.25;;;4.70;99.90;;;;;;5014088;28;20206;-75
2021/01/02 12:30:43;;;;;;;25.03;14.20;;;4.70;99.90;;;;;;5014962;28;20182;-74
2021/01/02 12:33:08;;;;;;;22.83;14.57;;;4.80;99.90;;;;;;5014393;28;20253;-75
2021/01/02 12:35:34;;;;;;;23.03;13.90;;;4.70;99.90;;;;;;5014973;28;20226;-74
2021/01/02 12:37:59;;;;;;;23.67;13.27;;;4.60;99.90;;;;;;5014973;28;20186;-74
2021/01/02 12:40:25;;;;;;;24.13;13.00;;;4.60;99.90;;;;;;5014687;28;20266;-74
2021/01/02 12:42:51;;;;;;;27.90;14.33;;;4.70;99.90;;;;;;5014267;28;20223;-74
2021/01/02 12:45:16;;;;;;;24.43;13.20;;;4.50;99.90;;;;;;5014714;28;20623;-74
2021/01/02 12:47:42;;;;;;;22.63;13.30;;;4.60;99.90;;;;;;5014237;28;20242;-74
2021/01/02 12:50:10;;;;;;;23.90;13.70;;;4.60;99.90;;;;;;5014481;28;20174;-75
2021/01/02 12:52:35;;;;;;;27.50;13.93;;;4.60;99.90;;;;;;5014492;28;20190;-75
2021/01/02 12:55:01;;;;;;;23.30;14.60;;;4.70;99.90;;;;;;5013989;28;20202;-74